createdAt,value
2022-10-14T00:00:32.104Z,44.41
2022-10-14T00:01:32.091Z,44.33
2022-10-14T00:02:32.105Z,44.29
2022-10-14T00:03:32.105Z,44.36
2022-10-14T00:04:32.106Z,44.22
2022-10-14T00:05:32.092Z,44.24
2022-10-14T00:06:32.106Z,44.18
2022-10-14T00:07:32.107Z,44.3
2022-10-14T00:08:32.107Z,44.11
2022-10-14T00:09:32.094Z,44.05
2022-10-14T00:10:32.108Z,44.06
2022-10-14T00:11:32.108Z,43.98
2022-10-14T00:12:32.094Z,44.07
2022-10-14T00:13:32.095Z,44.09
2022-10-14T00:14:32.109Z,43.98
2022-10-14T00:15:32.108Z,44.26
2022-10-14T00:16:32.096Z,44.1
2022-10-14T00:17:32.096Z,44.11
2022-10-14T00:18:32.110Z,44.1
2022-10-14T00:19:32.110Z,44.04
2022-10-14T00:20:32.097Z,44.18
2022-10-14T00:21:32.111Z,44.12
2022-10-14T00:22:32.110Z,44.25
2022-10-14T00:23:32.112Z,44.2
2022-10-14T00:24:32.098Z,44.2
2022-10-14T00:25:32.112Z,44.24
2022-10-14T00:26:32.111Z,44.24
2022-10-14T00:27:32.113Z,44.26
2022-10-14T00:28:32.100Z,44.27
2022-10-14T00:29:32.114Z,44.58
2022-10-14T00:30:32.114Z,44.26
2022-10-14T00:31:32.100Z,44.32
2022-10-14T00:32:32.101Z,44.33
2022-10-14T00:33:32.115Z,44.38
2022-10-14T00:34:32.115Z,44.33
2022-10-14T00:35:32.102Z,44.39
2022-10-14T00:36:32.116Z,44.45
2022-10-14T00:37:32.115Z,44.43
2022-10-14T00:38:32.116Z,44.54
2022-10-14T00:39:32.103Z,44.44
2022-10-14T00:40:32.117Z,44.58
2022-10-14T00:41:32.169Z,44.57
2022-10-14T00:42:32.118Z,44.48
2022-10-14T00:43:32.104Z,44.44
2022-10-14T00:44:32.118Z,44.44
2022-10-14T00:45:32.118Z,44.35
2022-10-14T00:46:32.119Z,44.25
2022-10-14T00:47:32.105Z,44.23
2022-10-14T00:48:32.119Z,44.11
2022-10-14T00:49:32.119Z,43.97
2022-10-14T00:50:32.106Z,44.05
2022-10-14T00:51:32.107Z,44.02
2022-10-14T00:52:32.121Z,43.88
2022-10-14T00:53:32.121Z,43.8
2022-10-14T00:54:32.108Z,43.89
2022-10-14T00:55:32.122Z,43.81
2022-10-14T00:56:32.122Z,43.98
2022-10-14T00:57:32.122Z,43.88
2022-10-14T00:58:32.109Z,43.81
2022-10-14T00:59:32.123Z,43.83
2022-10-14T01:00:32.123Z,43.79
2022-10-14T01:01:32.123Z,43.81
2022-10-14T01:02:32.110Z,43.78
2022-10-14T01:03:32.124Z,43.79
2022-10-14T01:04:32.124Z,44.01
2022-10-14T01:05:32.136Z,43.74
2022-10-14T01:06:32.111Z,43.79
2022-10-14T01:07:32.125Z,43.71
2022-10-14T01:08:32.125Z,43.74
2022-10-14T01:09:32.113Z,43.68
2022-10-14T01:10:32.113Z,43.64
2022-10-14T01:11:32.127Z,43.59
2022-10-14T01:12:32.191Z,43.59
2022-10-14T01:13:32.114Z,43.65
2022-10-14T01:14:32.128Z,43.59
2022-10-14T01:15:32.128Z,43.75
2022-10-14T01:16:32.128Z,43.82
2022-10-14T01:17:32.115Z,43.78
2022-10-14T01:18:32.128Z,43.74
2022-10-14T01:19:32.130Z,43.75
2022-10-14T01:20:32.129Z,43.83
2022-10-14T01:21:32.116Z,43.94
2022-10-14T01:22:32.130Z,44.06
2022-10-14T01:23:32.129Z,44.01
2022-10-14T01:24:32.141Z,44.19
2022-10-14T01:25:32.117Z,44.13
2022-10-14T01:26:32.131Z,44.21
2022-10-14T01:27:32.131Z,44.09
2022-10-14T01:28:32.118Z,44.22
2022-10-14T01:29:32.119Z,44.29
2022-10-14T01:30:32.133Z,44.42
2022-10-14T01:31:32.134Z,44.3
2022-10-14T01:32:32.119Z,44.41
2022-10-14T01:33:32.133Z,44.26
2022-10-14T01:34:32.134Z,44.45
2022-10-14T01:35:32.133Z,44.49
2022-10-14T01:36:32.121Z,44.49
2022-10-14T01:37:32.134Z,44.58
2022-10-14T01:38:32.135Z,44.55
2022-10-14T01:39:32.134Z,44.48
2022-10-14T01:40:32.123Z,44.56
2022-10-14T01:41:32.135Z,44.71
2022-10-14T01:42:32.136Z,44.64
2022-10-14T01:43:32.123Z,44.6
2022-10-14T01:44:32.123Z,44.6
2022-10-14T01:45:32.137Z,44.37
2022-10-14T01:46:32.137Z,44.59
2022-10-14T01:47:32.124Z,44.52
2022-10-14T01:48:32.202Z,44.53
2022-10-14T01:49:32.138Z,44.33
2022-10-14T01:50:32.138Z,44.61
2022-10-14T01:51:32.125Z,44.63
2022-10-14T01:52:32.139Z,44.67
2022-10-14T01:53:32.139Z,44.64
2022-10-14T01:54:32.139Z,44.63
2022-10-14T01:55:32.127Z,44.68
2022-10-14T01:56:32.141Z,44.59
2022-10-14T01:57:32.141Z,44.55
2022-10-14T01:58:32.140Z,44.68
2022-10-14T01:59:32.128Z,44.68
2022-10-14T02:00:32.167Z,44.71
2022-10-14T02:01:32.141Z,44.9
2022-10-14T02:02:32.129Z,44.71
2022-10-14T02:03:32.130Z,44.73
2022-10-14T02:04:32.142Z,44.6
2022-10-14T02:05:32.142Z,44.71
2022-10-14T02:06:32.130Z,44.71
2022-10-14T02:07:32.143Z,44.83
2022-10-14T02:08:32.143Z,44.77
2022-10-14T02:09:32.145Z,44.67
2022-10-14T02:10:32.131Z,44.59
2022-10-14T02:11:32.145Z,44.56
2022-10-14T02:12:32.210Z,44.5
2022-10-14T02:13:32.146Z,44.4
2022-10-14T02:14:32.133Z,44.49
2022-10-14T02:15:32.147Z,44.61
2022-10-14T02:16:32.146Z,44.43
2022-10-14T02:17:32.146Z,44.43
2022-10-14T02:18:32.134Z,44.51
2022-10-14T02:19:32.148Z,44.51
2022-10-14T02:20:32.147Z,44.55
2022-10-14T02:21:32.135Z,44.65
2022-10-14T02:22:32.136Z,44.67
2022-10-14T02:23:32.148Z,44.88
2022-10-14T02:24:32.213Z,44.76
2022-10-14T02:25:32.136Z,44.64
2022-10-14T02:26:32.150Z,44.53
2022-10-14T02:27:32.150Z,44.3
2022-10-14T02:28:32.151Z,44.56
2022-10-14T02:29:32.137Z,44.41
2022-10-14T02:30:32.151Z,44.29
2022-10-14T02:31:32.153Z,44.35
2022-10-14T02:32:32.151Z,44.31
2022-10-14T02:33:32.140Z,44.29
2022-10-14T02:34:32.152Z,44.18
2022-10-14T02:35:32.153Z,44.36
2022-10-14T02:36:32.153Z,44.21
2022-10-14T02:37:32.140Z,44.35
2022-10-14T02:38:32.154Z,44.35
2022-10-14T02:39:32.154Z,44.45
2022-10-14T02:40:32.141Z,44.48
2022-10-14T02:41:32.142Z,44.5
2022-10-14T02:42:32.155Z,44.54
2022-10-14T02:43:32.154Z,44.45
2022-10-14T02:44:32.142Z,44.41
2022-10-14T02:45:32.156Z,44.29
2022-10-14T02:46:32.155Z,44.27
2022-10-14T02:47:32.157Z,44.34
2022-10-14T02:48:32.143Z,44.29
2022-10-14T02:49:32.157Z,44.37
2022-10-14T02:50:32.157Z,44.23
2022-10-14T02:51:32.157Z,44.48
2022-10-14T02:52:32.145Z,44.32
2022-10-14T02:53:32.158Z,44.5
2022-10-14T02:54:32.159Z,44.51
2022-10-14T02:55:32.145Z,44.4
2022-10-14T02:56:32.146Z,44.33
2022-10-14T02:57:32.160Z,44.52
2022-10-14T02:58:32.159Z,44.23
2022-10-14T02:59:32.147Z,44.23
2022-10-14T03:00:32.147Z,44.18
2022-10-14T03:01:32.161Z,44.34
2022-10-14T03:02:32.161Z,44.14
2022-10-14T03:03:32.148Z,44.13
2022-10-14T03:04:32.162Z,44.26
2022-10-14T03:05:32.162Z,44.3
2022-10-14T03:06:32.161Z,44.16
2022-10-14T03:07:32.162Z,44.33
2022-10-14T03:08:32.163Z,44.41
2022-10-14T03:09:32.163Z,44.48
2022-10-14T03:10:32.164Z,44.65
2022-10-14T03:11:32.150Z,44.49
2022-10-14T03:12:32.163Z,44.55
2022-10-14T03:13:32.164Z,44.46
2022-10-14T03:14:32.152Z,44.58
2022-10-14T03:15:32.152Z,44.6
2022-10-14T03:16:32.166Z,44.58
2022-10-14T03:17:32.165Z,44.48
2022-10-14T03:18:32.153Z,44.48
2022-10-14T03:19:32.231Z,44.45
2022-10-14T03:20:32.167Z,44.41
2022-10-14T03:21:32.166Z,44.35
2022-10-14T03:22:32.154Z,44.35
2022-10-14T03:23:32.168Z,44.39
2022-10-14T03:24:32.167Z,44.14
2022-10-14T03:25:32.168Z,44.36
2022-10-14T03:26:32.155Z,44.13
2022-10-14T03:27:32.168Z,43.87
2022-10-14T03:28:32.168Z,43.95
2022-10-14T03:29:32.170Z,43.87
2022-10-14T03:30:32.156Z,43.84
2022-10-14T03:31:32.210Z,43.79
2022-10-14T03:32:32.170Z,43.74
2022-10-14T03:33:32.157Z,43.82
2022-10-14T03:34:32.158Z,43.81
2022-10-14T03:35:32.172Z,43.75
2022-10-14T03:36:32.171Z,43.9
2022-10-14T03:37:32.158Z,43.9
2022-10-14T03:38:32.173Z,43.79
2022-10-14T03:39:32.173Z,43.94
2022-10-14T03:40:32.172Z,43.96
2022-10-14T03:41:32.160Z,43.92
2022-10-14T03:42:32.174Z,43.97
2022-10-14T03:43:32.216Z,43.79
2022-10-14T03:44:32.174Z,44.09
2022-10-14T03:45:32.161Z,44
2022-10-14T03:46:32.175Z,43.97
2022-10-14T03:47:32.174Z,43.9
2022-10-14T03:48:32.176Z,43.9
2022-10-14T03:49:32.162Z,43.86
2022-10-14T03:50:32.176Z,43.81
2022-10-14T03:51:32.176Z,43.74
2022-10-14T03:52:32.163Z,43.89
2022-10-14T03:53:32.164Z,43.9
2022-10-14T03:54:32.178Z,43.98
2022-10-14T03:55:32.178Z,43.99
2022-10-14T03:56:32.164Z,43.88
2022-10-14T03:57:32.179Z,43.84
2022-10-14T03:58:32.179Z,44.11
2022-10-14T03:59:32.178Z,44.05
2022-10-14T04:00:32.166Z,44.06
2022-10-14T04:01:32.179Z,44.1
2022-10-14T04:02:32.179Z,44.18
2022-10-14T04:03:32.180Z,44.12
2022-10-14T04:04:32.168Z,44.19
2022-10-14T04:05:32.181Z,44.07
2022-10-14T04:06:32.180Z,44.23
2022-10-14T04:07:32.168Z,44.14
2022-10-14T04:08:32.168Z,44.23
2022-10-14T04:09:32.182Z,44.18
2022-10-14T04:10:32.182Z,44.27
2022-10-14T04:11:32.169Z,44.31
2022-10-14T04:12:32.170Z,44.31
2022-10-14T04:13:32.184Z,44.37
2022-10-14T04:14:32.184Z,44.14
2022-10-14T04:15:32.170Z,44.27
2022-10-14T04:16:32.185Z,44.34
2022-10-14T04:17:32.185Z,44.29
2022-10-14T04:18:32.184Z,44.32
2022-10-14T04:19:32.172Z,44.3
2022-10-14T04:20:32.185Z,44.24
2022-10-14T04:21:32.185Z,44.32
2022-10-14T04:22:32.186Z,44.21
2022-10-14T04:23:32.173Z,44.22
2022-10-14T04:24:32.187Z,44.13
2022-10-14T04:25:32.187Z,44.42
2022-10-14T04:26:32.174Z,44.3
2022-10-14T04:27:32.175Z,44.32
2022-10-14T04:28:32.188Z,44.24
2022-10-14T04:29:32.188Z,44.35
2022-10-14T04:30:32.175Z,44.37
2022-10-14T04:31:32.176Z,44.38
2022-10-14T04:32:32.189Z,44.4
2022-10-14T04:33:32.190Z,44.4
2022-10-14T04:34:32.176Z,44.3
2022-10-14T04:35:32.189Z,44.22
2022-10-14T04:36:32.191Z,44.1
2022-10-14T04:37:32.190Z,44.34
2022-10-14T04:38:32.178Z,44.29
2022-10-14T04:39:32.192Z,44.39
2022-10-14T04:40:32.192Z,44.22
2022-10-14T04:41:32.191Z,44.34
2022-10-14T04:42:32.179Z,44.31
2022-10-14T04:43:32.193Z,44.28
2022-10-14T04:44:32.193Z,44.31
2022-10-14T04:45:32.180Z,44.36
2022-10-14T04:46:32.180Z,44.37
2022-10-14T04:47:32.194Z,44.32
2022-10-14T04:48:32.194Z,44.56
2022-10-14T04:49:32.181Z,44.45
2022-10-14T04:50:32.181Z,44.48
2022-10-14T04:51:32.194Z,44.43
2022-10-14T04:52:32.196Z,44.57
2022-10-14T04:53:32.182Z,44.6
2022-10-14T04:54:32.196Z,44.55
2022-10-14T04:55:32.197Z,44.77
2022-10-14T04:56:32.197Z,44.76
2022-10-14T04:57:32.184Z,44.63
2022-10-14T04:58:32.198Z,44.77
2022-10-14T04:59:32.197Z,44.84
2022-10-14T05:00:32.197Z,44.85
2022-10-14T05:01:32.185Z,44.78
2022-10-14T05:02:32.199Z,44.91
2022-10-14T05:03:32.198Z,44.88
2022-10-14T05:04:32.186Z,44.84
2022-10-14T05:05:32.186Z,44.89
2022-10-14T05:06:32.200Z,44.92
2022-10-14T05:07:32.199Z,45.06
2022-10-14T05:08:32.187Z,44.97
2022-10-14T05:09:32.187Z,45
2022-10-14T05:10:32.201Z,44.86
2022-10-14T05:11:32.201Z,45.1
2022-10-14T05:12:32.188Z,45.02
2022-10-14T05:13:32.202Z,45.05
2022-10-14T05:14:32.202Z,45.03
2022-10-14T05:15:32.202Z,45.1
2022-10-14T05:16:32.190Z,45.03
2022-10-14T05:17:32.204Z,45.01
2022-10-14T05:18:32.203Z,45.03
2022-10-14T05:19:32.203Z,45.07
2022-10-14T05:20:32.191Z,45.02
2022-10-14T05:21:32.205Z,44.9
2022-10-14T05:22:32.206Z,45.05
2022-10-14T05:23:32.192Z,44.94
2022-10-14T05:24:32.192Z,44.87
2022-10-14T05:25:32.205Z,44.88
2022-10-14T05:26:32.206Z,44.83
2022-10-14T05:27:32.193Z,44.75
2022-10-14T05:28:32.257Z,44.83
2022-10-14T05:29:32.206Z,44.77
2022-10-14T05:30:32.208Z,44.86
2022-10-14T05:31:32.194Z,44.79
2022-10-14T05:32:32.208Z,44.73
2022-10-14T05:33:32.207Z,44.81
2022-10-14T05:34:32.209Z,44.67
2022-10-14T05:35:32.195Z,44.67
2022-10-14T05:36:32.209Z,44.69
2022-10-14T05:37:32.210Z,44.64
2022-10-14T05:38:32.210Z,44.65
2022-10-14T05:39:32.197Z,44.63
2022-10-14T05:40:32.211Z,44.64
2022-10-14T05:41:32.211Z,44.65
2022-10-14T05:42:32.198Z,44.57
2022-10-14T05:43:32.198Z,44.55
2022-10-14T05:44:32.211Z,44.46
2022-10-14T05:45:32.211Z,44.49
2022-10-14T05:46:32.199Z,44.5
2022-10-14T05:47:32.213Z,44.62
2022-10-14T05:48:32.213Z,44.39
2022-10-14T05:49:32.213Z,44.47
2022-10-14T05:50:32.200Z,44.48
2022-10-14T05:51:32.214Z,44.54
2022-10-14T05:52:32.257Z,44.43
2022-10-14T05:53:32.214Z,44.53
2022-10-14T05:54:32.201Z,44.53
2022-10-14T05:55:32.215Z,44.36
2022-10-14T05:56:32.216Z,44.57
2022-10-14T05:57:32.216Z,44.67
2022-10-14T05:58:32.204Z,44.56
2022-10-14T05:59:32.216Z,44.55
2022-10-14T06:00:32.216Z,44.59
2022-10-14T06:01:32.203Z,44.55
2022-10-14T06:02:32.205Z,44.55
2022-10-14T06:03:32.218Z,44.47
2022-10-14T06:04:32.281Z,44.61
2022-10-14T06:05:32.205Z,44.55
2022-10-14T06:06:32.219Z,44.46
2022-10-14T06:07:32.219Z,44.45
2022-10-14T06:08:32.218Z,44.53
2022-10-14T06:09:32.206Z,44.53
2022-10-14T06:10:32.220Z,44.37
2022-10-14T06:11:32.247Z,44.45
2022-10-14T06:12:32.220Z,44.36
2022-10-14T06:14:32.221Z,44.29
2022-10-14T06:15:32.222Z,44.51
2022-10-14T06:16:32.221Z,44.17
2022-10-14T06:17:32.209Z,44.29
2022-10-14T06:18:32.222Z,44.31
2022-10-14T06:19:32.224Z,44.39
2022-10-14T06:20:32.209Z,44.37
2022-10-14T06:21:32.211Z,44.42
2022-10-14T06:22:32.224Z,44.6
2022-10-14T06:23:32.287Z,44.38
2022-10-14T06:24:32.211Z,44.34
2022-10-14T06:25:32.225Z,44.34
2022-10-14T06:26:32.225Z,44.36
2022-10-14T06:27:32.224Z,44.07
2022-10-14T06:28:32.212Z,44.05
2022-10-14T06:29:32.226Z,43.99
2022-10-14T06:30:32.225Z,44.01
2022-10-14T06:31:32.227Z,43.88
2022-10-14T06:32:32.213Z,43.76
2022-10-14T06:33:32.227Z,43.56
2022-10-14T06:34:32.228Z,43.61
2022-10-14T06:35:32.239Z,43.36
2022-10-14T06:36:32.215Z,43.4
2022-10-14T06:37:32.228Z,43.31
2022-10-14T06:38:32.228Z,43.34
2022-10-14T06:39:32.215Z,43.29
2022-10-14T06:40:32.216Z,43.29
2022-10-14T06:41:32.230Z,43.34
2022-10-14T06:42:32.230Z,43.16
2022-10-14T06:43:32.217Z,43.16
2022-10-14T06:44:32.231Z,43.33
2022-10-14T06:45:32.231Z,43.11
2022-10-14T06:46:32.231Z,43.19
2022-10-14T06:47:32.218Z,43.15
2022-10-14T06:48:32.232Z,43.29
2022-10-14T06:49:32.232Z,43.22
2022-10-14T06:50:32.232Z,43.3
2022-10-14T06:51:32.220Z,43.37
2022-10-14T06:52:32.233Z,43.28
2022-10-14T06:53:32.234Z,43.41
2022-10-14T06:54:32.220Z,43.21
2022-10-14T06:55:32.221Z,43.12
2022-10-14T06:56:32.235Z,43.11
2022-10-14T06:57:32.236Z,43.04
2022-10-14T06:58:32.222Z,42.91
2022-10-14T06:59:32.222Z,42.83
2022-10-14T07:00:32.236Z,42.79
2022-10-14T07:01:32.236Z,42.97
2022-10-14T07:02:32.223Z,43.03
2022-10-14T07:03:32.237Z,43.14
2022-10-14T07:04:32.237Z,43.24
2022-10-14T07:05:32.237Z,43.34
2022-10-14T07:06:32.224Z,43.27
2022-10-14T07:07:32.238Z,43.35
2022-10-14T07:08:32.237Z,43.35
2022-10-14T07:09:32.239Z,43.17
2022-10-14T07:10:32.225Z,43.11
2022-10-14T07:11:32.240Z,43.07
2022-10-14T07:12:32.239Z,43.24
2022-10-14T07:13:32.226Z,43.18
2022-10-14T07:14:32.227Z,43.14
2022-10-14T07:15:32.241Z,42.96
2022-10-14T07:16:32.241Z,42.91
2022-10-14T07:17:32.228Z,42.89
2022-10-14T07:18:32.291Z,42.76
2022-10-14T07:19:32.242Z,42.88
2022-10-14T07:20:32.241Z,42.93
2022-10-14T07:21:32.229Z,42.92
2022-10-14T07:22:32.243Z,43.03
2022-10-14T07:23:32.242Z,43.04
2022-10-14T07:24:32.244Z,42.98
2022-10-14T07:25:32.230Z,42.94
2022-10-14T07:26:32.243Z,42.94
2022-10-14T07:27:32.246Z,42.81
2022-10-14T07:28:32.245Z,42.75
2022-10-14T07:29:32.233Z,42.66
2022-10-14T07:30:32.247Z,42.39
2022-10-14T07:31:32.246Z,42.59
2022-10-14T07:32:32.233Z,42.56
2022-10-14T07:33:32.233Z,42.55
2022-10-14T07:34:32.247Z,42.47
2022-10-14T07:35:32.247Z,42.52
2022-10-14T07:36:32.234Z,42.45
2022-10-14T07:37:32.248Z,42.38
2022-10-14T07:38:32.248Z,42.23
2022-10-14T07:39:32.248Z,42.37
2022-10-14T07:40:32.235Z,42.35
2022-10-14T07:41:32.250Z,42.19
2022-10-14T07:42:32.301Z,42.3
2022-10-14T07:43:32.249Z,42.23
2022-10-14T07:44:32.237Z,42.08
2022-10-14T07:45:32.250Z,42.12
2022-10-14T07:46:32.251Z,41.95
2022-10-14T07:47:32.252Z,41.95
2022-10-14T07:48:32.238Z,42.04
2022-10-14T07:49:32.251Z,42.08
2022-10-14T07:50:32.253Z,42.02
2022-10-14T07:51:32.239Z,41.95
2022-10-14T07:52:32.241Z,41.9
2022-10-14T07:53:32.254Z,41.74
2022-10-14T07:54:32.254Z,41.79
2022-10-14T07:55:32.241Z,41.72
2022-10-14T07:56:32.255Z,41.54
2022-10-14T07:57:32.255Z,41.62
2022-10-14T07:58:32.255Z,41.64
2022-10-14T07:59:32.242Z,41.6
2022-10-14T08:00:32.256Z,41.37
2022-10-14T08:01:32.283Z,41.43
2022-10-14T08:02:32.257Z,41.4
2022-10-14T08:03:32.244Z,41.34
2022-10-14T08:04:32.257Z,41.38
2022-10-14T08:05:32.258Z,41.31
2022-10-14T08:06:32.257Z,41.31
2022-10-14T08:07:32.246Z,41.21
2022-10-14T08:08:32.259Z,41.15
2022-10-14T08:09:32.258Z,41.39
2022-10-14T08:10:32.246Z,41.29
2022-10-14T08:11:32.247Z,41.31
2022-10-14T08:12:32.261Z,41.2
2022-10-14T08:13:32.325Z,41.4
2022-10-14T08:14:32.248Z,41.37
2022-10-14T08:15:32.262Z,41.3
2022-10-14T08:16:32.262Z,41.44
2022-10-14T08:17:32.261Z,41.54
2022-10-14T08:18:32.249Z,41.53
2022-10-14T08:19:32.263Z,41.56
2022-10-14T08:20:32.264Z,41.55
2022-10-14T08:21:32.264Z,41.41
2022-10-14T08:22:32.252Z,41.35
2022-10-14T08:23:32.265Z,41.03
2022-10-14T08:24:32.265Z,41.18
2022-10-14T08:25:32.252Z,41.15
2022-10-14T08:26:32.252Z,41.29
2022-10-14T08:27:32.265Z,41.22
2022-10-14T08:28:32.266Z,41.37
2022-10-14T08:29:32.253Z,41.54
2022-10-14T08:30:32.254Z,41.66
2022-10-14T08:31:32.268Z,41.77
2022-10-14T08:32:32.269Z,41.64
2022-10-14T08:33:32.255Z,41.6
2022-10-14T08:34:32.269Z,41.76
2022-10-14T08:35:32.268Z,41.56
2022-10-14T08:36:32.268Z,41.64
2022-10-14T08:37:32.256Z,41.72
2022-10-14T08:38:32.270Z,41.52
2022-10-14T08:39:32.271Z,41.78
2022-10-14T08:40:32.270Z,41.85
2022-10-14T08:41:32.258Z,41.84
2022-10-14T08:42:32.272Z,41.67
2022-10-14T08:43:32.272Z,41.73
2022-10-14T08:44:32.259Z,41.5
2022-10-14T08:45:32.260Z,41.34
2022-10-14T08:46:32.272Z,41.16
2022-10-14T08:47:32.274Z,41.02
2022-10-14T08:48:32.260Z,40.91
2022-10-14T08:49:32.261Z,40.98
2022-10-14T08:50:32.274Z,41.07
2022-10-14T08:51:32.274Z,40.86
2022-10-14T08:52:32.262Z,40.78
2022-10-14T08:53:32.276Z,40.78
2022-10-14T08:54:32.275Z,40.83
2022-10-14T08:55:32.277Z,40.88
2022-10-14T08:56:32.263Z,41.05
2022-10-14T08:57:32.278Z,41.12
2022-10-14T08:58:32.277Z,41.26
2022-10-14T08:59:32.277Z,41.42
2022-10-14T09:00:32.265Z,41.25
2022-10-14T09:01:32.278Z,41.23
2022-10-14T09:02:32.279Z,41
2022-10-14T09:03:32.266Z,40.98
2022-10-14T09:04:32.267Z,40.97
2022-10-14T09:05:32.281Z,41.08
2022-10-14T09:06:32.281Z,40.94
2022-10-14T09:07:32.268Z,40.72
2022-10-14T09:09:32.282Z,39.86
2022-10-14T09:10:32.283Z,39.41
2022-10-14T09:11:32.269Z,39
2022-10-14T09:12:32.283Z,38.97
2022-10-14T09:13:32.284Z,38.57
2022-10-14T09:14:32.284Z,38.26
2022-10-14T09:15:32.271Z,38.22
2022-10-14T09:16:32.285Z,38.56
2022-10-14T09:17:32.287Z,38.62
2022-10-14T09:18:32.286Z,38.67
2022-10-14T09:19:32.273Z,38.72
2022-10-14T09:20:32.311Z,38.87
2022-10-14T09:21:32.287Z,38.77
2022-10-14T09:22:32.274Z,38.71
2022-10-14T09:23:32.274Z,38.75
2022-10-14T09:24:32.287Z,38.94
2022-10-14T09:25:32.288Z,39.08
2022-10-14T09:26:32.276Z,39.16
2022-10-14T09:27:32.332Z,39.1
2022-10-14T09:28:32.290Z,39.3
2022-10-14T09:29:32.290Z,39.19
2022-10-14T09:30:32.277Z,39.33
2022-10-14T09:31:32.292Z,39.51
2022-10-14T09:32:32.291Z,39.59
2022-10-14T09:33:32.292Z,39.76
2022-10-14T09:34:32.279Z,39.71
2022-10-14T09:35:32.293Z,39.82
2022-10-14T09:36:32.294Z,39.61
2022-10-14T09:37:32.294Z,39.64
2022-10-14T09:38:32.281Z,39.81
2022-10-14T09:39:32.359Z,39.74
2022-10-14T09:40:32.294Z,39.64
2022-10-14T09:41:32.282Z,39.48
2022-10-14T09:42:32.282Z,39.41
2022-10-14T09:43:32.296Z,39.41
2022-10-14T09:44:32.296Z,39.63
2022-10-14T09:45:32.284Z,39.56
2022-10-14T09:46:32.300Z,39.31
2022-10-14T09:47:32.298Z,39.53
2022-10-14T09:48:32.299Z,39.75
2022-10-14T09:49:32.285Z,39.86
2022-10-14T09:50:32.300Z,40.29
2022-10-14T09:51:32.300Z,40.42
2022-10-14T09:52:32.300Z,40.57
2022-10-14T09:53:32.287Z,40.51
2022-10-14T09:54:32.301Z,40.72
2022-10-14T09:55:32.302Z,40.6
2022-10-14T09:56:32.301Z,40.57
2022-10-14T09:57:32.290Z,40.54
2022-10-14T09:58:32.304Z,40.58
2022-10-14T09:59:32.302Z,40.65
2022-10-14T10:00:32.290Z,40.86
2022-10-14T10:01:32.292Z,41.09
2022-10-14T10:02:32.304Z,41.27
2022-10-14T10:03:32.304Z,41.28
2022-10-14T10:04:32.292Z,41.25
2022-10-14T10:05:32.306Z,41.24
2022-10-14T10:06:32.306Z,41
2022-10-14T10:07:32.306Z,40.82
2022-10-14T10:08:32.294Z,40.76
2022-10-14T10:09:32.307Z,40.61
2022-10-14T10:10:32.307Z,40.77
2022-10-14T10:11:32.308Z,40.97
2022-10-14T10:12:32.295Z,41.19
2022-10-14T10:13:32.309Z,41.39
2022-10-14T10:14:32.310Z,41.64
2022-10-14T10:15:32.310Z,41.69
2022-10-14T10:16:32.298Z,41.92
2022-10-14T10:17:32.310Z,42.11
2022-10-14T10:18:32.311Z,42.37
2022-10-14T10:19:32.298Z,42.5
2022-10-14T10:20:32.300Z,42.65
2022-10-14T10:21:32.313Z,42.81
2022-10-14T10:22:32.312Z,42.93
2022-10-14T10:23:32.300Z,43.11
2022-10-14T10:24:32.314Z,43.27
2022-10-14T10:25:32.314Z,43.43
2022-10-14T10:26:32.314Z,43.49
2022-10-14T10:27:32.314Z,43.45
2022-10-14T10:28:32.316Z,43.47
2022-10-14T10:29:32.316Z,43.62
2022-10-14T10:30:32.315Z,43.6
2022-10-14T10:31:32.303Z,43.35
2022-10-14T10:32:32.316Z,43.12
2022-10-14T10:33:32.317Z,43.03
2022-10-14T10:34:32.304Z,42.9
2022-10-14T10:35:32.305Z,42.76
2022-10-14T10:36:32.318Z,42.61
2022-10-14T10:37:32.319Z,42.5
2022-10-14T10:38:32.306Z,42.52
2022-10-14T10:39:32.345Z,42.73
2022-10-14T10:40:32.320Z,42.77
2022-10-14T10:41:32.321Z,42.92
2022-10-14T10:42:32.308Z,42.96
2022-10-14T10:43:32.322Z,42.99
2022-10-14T10:44:32.322Z,43.22
2022-10-14T10:45:32.322Z,43.22
2022-10-14T10:46:32.309Z,43.23
2022-10-14T10:47:32.323Z,43.28
2022-10-14T10:48:32.325Z,43.37
2022-10-14T10:49:32.323Z,43.48
2022-10-14T10:50:32.311Z,43.62
2022-10-14T10:51:32.389Z,43.63
2022-10-14T10:52:32.325Z,43.71
2022-10-14T10:53:32.313Z,43.78
2022-10-14T10:54:32.313Z,43.87
2022-10-14T10:55:32.327Z,43.92
2022-10-14T10:56:32.327Z,44.04
2022-10-14T10:57:32.314Z,44.15
2022-10-14T10:58:32.327Z,44.17
2022-10-14T10:59:32.327Z,44.13
2022-10-14T11:00:32.328Z,44.12
2022-10-14T11:01:32.315Z,44.05
2022-10-14T11:02:32.330Z,43.91
2022-10-14T11:03:32.330Z,43.96
2022-10-14T11:04:32.330Z,43.74
2022-10-14T11:05:32.318Z,43.57
2022-10-14T11:06:32.331Z,43.6
2022-10-14T11:07:32.331Z,43.43
2022-10-14T11:08:32.332Z,43.38
2022-10-14T11:09:32.319Z,43.19
2022-10-14T11:10:32.333Z,43.15
2022-10-14T11:11:32.333Z,42.88
2022-10-14T11:12:32.320Z,42.77
2022-10-14T11:13:32.321Z,42.53
2022-10-14T11:14:32.333Z,42.25
2022-10-14T11:15:32.334Z,42.03
2022-10-14T11:16:32.321Z,41.75
2022-10-14T11:17:32.335Z,41.5
2022-10-14T11:18:32.336Z,41.12
2022-10-14T11:19:32.336Z,40.75
2022-10-14T11:20:32.323Z,40.56
2022-10-14T11:21:32.337Z,40.31
2022-10-14T11:22:32.403Z,40.3
2022-10-14T11:23:32.337Z,40
2022-10-14T11:24:32.325Z,39.97
2022-10-14T11:25:32.339Z,39.98
2022-10-14T11:26:32.339Z,40.02
2022-10-14T11:27:32.340Z,40.05
2022-10-14T11:28:32.326Z,40.01
2022-10-14T11:29:32.341Z,40.05
2022-10-14T11:30:32.341Z,39.96
2022-10-14T11:31:32.328Z,39.81
2022-10-14T11:32:32.329Z,39.56
2022-10-14T11:33:32.342Z,39.1
2022-10-14T11:34:32.342Z,38.57
2022-10-14T11:35:32.329Z,38.21
2022-10-14T11:36:32.344Z,37.95
2022-10-14T11:37:32.344Z,37.48
2022-10-14T11:38:32.343Z,37.46
2022-10-14T11:39:32.331Z,37.73
2022-10-14T11:40:32.344Z,37.95
2022-10-14T11:41:32.350Z,38.16
2022-10-14T11:42:32.346Z,38.45
2022-10-14T11:43:32.333Z,38.57
2022-10-14T11:44:32.347Z,38.82
2022-10-14T11:45:32.347Z,39.1
2022-10-14T11:46:32.348Z,39.18
2022-10-14T11:47:32.336Z,39.36
2022-10-14T11:48:32.349Z,39.79
2022-10-14T11:49:32.350Z,39.89
2022-10-14T11:50:32.336Z,39.89
2022-10-14T11:51:32.337Z,40.03
2022-10-14T11:52:32.351Z,40.1
2022-10-14T11:53:32.375Z,40.26
2022-10-14T11:54:32.338Z,40.38
2022-10-14T11:55:32.352Z,40.65
2022-10-14T11:56:32.353Z,40.64
2022-10-14T11:57:32.353Z,40.74
2022-10-14T11:58:32.340Z,40.78
2022-10-14T11:59:32.354Z,41.12
2022-10-14T12:00:32.354Z,41.07
2022-10-14T12:01:32.355Z,41.31
2022-10-14T12:02:32.342Z,41.43
2022-10-14T12:03:32.356Z,41.5
2022-10-14T12:04:32.355Z,41.7
2022-10-14T12:05:32.343Z,41.63
2022-10-14T12:06:32.343Z,41.7
2022-10-14T12:07:32.357Z,41.75
2022-10-14T12:08:32.357Z,41.67
2022-10-14T12:09:32.345Z,41.62
2022-10-14T12:10:32.345Z,41.56
2022-10-14T12:11:32.358Z,41.62
2022-10-14T12:12:32.361Z,41.81
2022-10-14T12:13:32.346Z,41.72
2022-10-14T12:14:32.361Z,41.94
2022-10-14T12:15:32.360Z,42
2022-10-14T12:16:32.361Z,42.1
2022-10-14T12:17:32.348Z,42.15
2022-10-14T12:18:32.362Z,42.47
2022-10-14T12:19:32.363Z,42.45
2022-10-14T12:20:32.363Z,42.67
2022-10-14T12:21:32.350Z,42.94
2022-10-14T12:22:32.364Z,43.17
2022-10-14T12:23:32.366Z,43.23
2022-10-14T12:24:32.351Z,43.31
2022-10-14T12:25:32.352Z,43.33
2022-10-14T12:26:32.366Z,43.23
2022-10-14T12:27:32.366Z,43.12
2022-10-14T12:28:32.353Z,43.06
2022-10-14T12:29:32.354Z,42.9
2022-10-14T12:30:32.367Z,42.76
2022-10-14T12:31:32.367Z,42.71
2022-10-14T12:32:32.355Z,42.53
2022-10-14T12:33:32.369Z,42.56
2022-10-14T12:34:32.369Z,42.54
2022-10-14T12:35:32.369Z,42.43
2022-10-14T12:36:32.357Z,42.22
2022-10-14T12:37:32.371Z,42.24
2022-10-14T12:38:32.371Z,42.25
2022-10-14T12:39:32.372Z,42.22
2022-10-14T12:40:32.359Z,42.24
2022-10-14T12:41:32.372Z,42.44
2022-10-14T12:42:32.374Z,42.72
2022-10-14T12:43:32.360Z,43.03
2022-10-14T12:44:32.360Z,43.27
2022-10-14T12:45:32.374Z,43.6
2022-10-14T12:46:32.374Z,43.63
2022-10-14T12:47:32.361Z,43.8
2022-10-14T12:48:32.416Z,43.94
2022-10-14T12:49:32.376Z,44.03
2022-10-14T12:50:32.375Z,44.15
2022-10-14T12:51:32.363Z,44.09
2022-10-14T12:52:32.377Z,44.11
2022-10-14T12:53:32.378Z,43.95
2022-10-14T12:54:32.378Z,44.04
2022-10-14T12:55:32.365Z,43.97
2022-10-14T12:56:32.379Z,43.91
2022-10-14T12:58:32.380Z,44